createdAt,value
2023-07-19T00:00:28.133Z,16.63
2023-07-19T00:02:56.080Z,14.20
2023-07-19T00:05:24.081Z,13.88
2023-07-19T00:07:52.053Z,14.15
2023-07-19T00:10:20.158Z,18.27
2023-07-19T00:12:55.946Z,15.88
2023-07-19T00:15:25.925Z,16.33
2023-07-19T00:17:53.915Z,12.40
2023-07-19T00:20:22.017Z,12.25
2023-07-19T00:22:50.405Z,11.60
2023-07-19T00:25:18.778Z,14.23
2023-07-19T00:27:49.770Z,14.07
2023-07-19T00:30:18.846Z,11.15
2023-07-19T00:32:48.338Z,13.32
2023-07-19T00:35:16.513Z,12.30
2023-07-19T00:37:45.361Z,13.60
2023-07-19T00:40:14.076Z,14.90
2023-07-19T00:42:42.129Z,19.70
2023-07-19T00:45:11.577Z,12.90
2023-07-19T00:47:40.746Z,18.85
2023-07-19T00:50:11.277Z,13.27
2023-07-19T00:52:39.937Z,15.50
2023-07-19T00:55:09.334Z,13.93
2023-07-19T00:57:37.701Z,14.00
2023-07-19T01:00:07.749Z,16.65
2023-07-19T01:02:36.123Z,13.85
2023-07-19T01:05:04.348Z,19.33
2023-07-19T01:07:34.885Z,12.75
2023-07-19T01:10:02.950Z,13.45
2023-07-19T01:12:30.902Z,15.98
2023-07-19T01:14:58.852Z,14.50
2023-07-19T01:17:26.876Z,14.85
2023-07-19T01:19:54.921Z,12.05
2023-07-19T01:22:23.056Z,15.35
2023-07-19T01:24:52.422Z,16.05
2023-07-19T01:27:23.410Z,20.65
2023-07-19T01:29:52.035Z,9.75
2023-07-19T01:32:20.062Z,18.08
2023-07-19T01:34:48.222Z,12.43
2023-07-19T01:37:16.228Z,10.57
2023-07-19T01:39:44.996Z,15.90
2023-07-19T01:42:14.396Z,14.32
2023-07-19T01:44:42.353Z,10.90
2023-07-19T01:47:10.607Z,12.48
2023-07-19T01:49:40.941Z,14.95
2023-07-19T01:52:09.429Z,11.05
2023-07-19T01:54:37.438Z,18.92
2023-07-19T01:57:06.887Z,10.95
2023-07-19T01:59:36.276Z,12.90
2023-07-19T02:02:04.548Z,16.48
2023-07-19T02:04:32.932Z,15.40
2023-07-19T02:07:01.051Z,16.52
2023-07-19T02:09:30.319Z,12.13
2023-07-19T02:11:58.314Z,14.25
2023-07-19T02:14:26.340Z,13.57
2023-07-19T02:16:55.679Z,11.15
2023-07-19T02:19:23.688Z,17.63
2023-07-19T02:21:53.970Z,15.27
2023-07-19T02:24:22.001Z,13.45
2023-07-19T02:26:50.500Z,16.08
2023-07-19T02:29:18.441Z,14.45
2023-07-19T02:31:46.439Z,12.90
2023-07-19T02:34:19.925Z,11.23
2023-07-19T02:36:48.151Z,15.88
2023-07-19T02:39:16.166Z,11.90
2023-07-19T02:41:45.754Z,14.45
2023-07-19T02:44:13.806Z,14.90
2023-07-19T02:46:41.838Z,10.80
2023-07-19T02:49:09.889Z,9.43
2023-07-19T02:51:39.606Z,8.70
2023-07-19T02:54:07.606Z,13.10
2023-07-19T02:56:35.631Z,9.20
2023-07-19T02:59:04.535Z,9.93
2023-07-19T03:01:32.544Z,11.10
2023-07-19T03:04:00.997Z,10.02
2023-07-19T03:06:29.735Z,8.95
2023-07-19T03:08:59.174Z,10.43
2023-07-19T03:11:27.164Z,13.40
2023-07-19T03:13:55.094Z,10.20
2023-07-19T03:16:23.230Z,12.20
2023-07-19T03:18:51.424Z,14.63
2023-07-19T03:21:21.695Z,13.05
2023-07-19T03:23:50.013Z,9.80
2023-07-19T03:26:19.366Z,11.48
2023-07-19T03:28:47.764Z,11.50
2023-07-19T03:31:16.341Z,7.03
2023-07-19T03:33:44.424Z,11.73
2023-07-19T03:36:12.362Z,7.32
2023-07-19T03:38:40.376Z,10.32
2023-07-19T03:41:10.251Z,9.52
2023-07-19T03:43:39.739Z,10.23
2023-07-19T03:46:08.439Z,9.13
2023-07-19T03:48:38.979Z,9.45
2023-07-19T03:51:07.255Z,8.52
2023-07-19T03:53:36.203Z,7.88
2023-07-19T03:56:04.420Z,13.07
2023-07-19T03:58:32.782Z,13.23
2023-07-19T04:01:04.248Z,15.80
2023-07-19T04:03:32.631Z,9.20
2023-07-19T04:06:00.927Z,13.10
2023-07-19T04:08:29.180Z,7.68
2023-07-19T04:10:57.171Z,13.57
2023-07-19T04:13:27.152Z,14.20
2023-07-19T04:15:55.831Z,8.40
2023-07-19T04:18:26.273Z,10.68
2023-07-19T04:20:58.699Z,13.27
2023-07-19T04:23:28.789Z,7.07
2023-07-19T04:25:56.955Z,9.52
2023-07-19T04:28:25.479Z,13.63
2023-07-19T04:30:53.663Z,8.65
2023-07-19T04:33:22.072Z,5.68
2023-07-19T04:35:51.935Z,8.88
2023-07-19T04:38:20.056Z,9.55
2023-07-19T04:40:48.182Z,7.45
2023-07-19T04:43:16.282Z,9.20
2023-07-19T04:45:49.600Z,9.55
2023-07-19T04:48:18.566Z,10.18
2023-07-19T04:50:46.555Z,9.95
2023-07-19T04:53:15.975Z,12.18
2023-07-19T04:55:45.021Z,6.63
2023-07-19T04:58:15.620Z,7.10
2023-07-19T05:00:43.588Z,9.68
2023-07-19T05:03:11.949Z,6.75
2023-07-19T05:05:40.978Z,11.13
2023-07-19T05:08:09.366Z,10.70
2023-07-19T05:10:39.833Z,6.38
2023-07-19T05:13:08.185Z,8.80
2023-07-19T05:15:36.281Z,7.65
2023-07-19T05:18:08.935Z,8.93
2023-07-19T05:20:36.982Z,8.18
2023-07-19T05:23:05.042Z,10.07
2023-07-19T05:25:33.094Z,8.85
2023-07-19T05:28:02.483Z,14.73
2023-07-19T05:30:30.579Z,10.25
2023-07-19T05:32:58.589Z,7.00
2023-07-19T05:35:26.628Z,8.98
2023-07-19T05:37:54.545Z,10.40
2023-07-19T05:40:22.563Z,9.05
2023-07-19T05:42:50.583Z,8.40
2023-07-19T05:45:20.134Z,9.45
2023-07-19T05:47:48.141Z,5.85
2023-07-19T05:50:16.239Z,7.28
2023-07-19T05:52:44.220Z,9.07
2023-07-19T05:55:12.260Z,8.48
2023-07-19T05:57:40.566Z,8.13
2023-07-19T06:00:20.717Z,8.00
2023-07-19T06:02:55.052Z,10.52
2023-07-19T06:05:25.485Z,11.48
2023-07-19T06:07:54.252Z,14.00
2023-07-19T06:10:22.445Z,8.70
2023-07-19T06:12:51.288Z,8.65
2023-07-19T06:15:19.837Z,11.00
2023-07-19T06:17:47.912Z,11.40
2023-07-19T06:20:17.345Z,7.47
2023-07-19T06:22:45.365Z,13.35
2023-07-19T06:25:14.059Z,8.48
2023-07-19T06:27:42.132Z,10.35
2023-07-19T06:30:11.114Z,13.68
2023-07-19T06:32:39.168Z,8.55
2023-07-19T06:35:10.233Z,7.60
2023-07-19T06:37:39.627Z,9.43
2023-07-19T06:40:09.089Z,8.38
2023-07-19T06:42:37.864Z,9.43
2023-07-19T06:45:06.623Z,9.18
2023-07-19T06:47:34.674Z,9.07
2023-07-19T06:50:02.807Z,9.25
2023-07-19T06:52:30.941Z,35.63
2023-07-19T06:55:00.287Z,15.20
2023-07-19T06:57:28.479Z,8.70
2023-07-19T06:59:56.539Z,11.68
2023-07-19T07:02:24.633Z,10.60
2023-07-19T07:04:53.197Z,8.20
2023-07-19T07:07:21.168Z,11.40
2023-07-19T07:09:49.322Z,12.98
2023-07-19T07:12:18.764Z,10.65
2023-07-19T07:14:49.729Z,13.45
2023-07-19T07:17:19.138Z,11.75
2023-07-19T07:19:47.351Z,9.68
2023-07-19T07:22:15.416Z,13.02
2023-07-19T07:24:43.359Z,14.65
2023-07-19T07:27:11.375Z,9.48
2023-07-19T07:29:43.167Z,10.15
2023-07-19T07:32:12.985Z,10.35
2023-07-19T07:34:41.099Z,9.95
2023-07-19T07:37:09.902Z,8.45
2023-07-19T07:39:37.968Z,9.75
2023-07-19T07:42:06.811Z,12.60
2023-07-19T07:44:34.803Z,11.63
2023-07-19T07:47:04.264Z,11.82
2023-07-19T07:49:32.741Z,16.58
2023-07-19T07:52:00.769Z,10.45
2023-07-19T07:54:28.774Z,11.00
2023-07-19T07:56:56.907Z,13.32
2023-07-19T07:59:24.947Z,10.73
2023-07-19T08:01:52.925Z,7.65
2023-07-19T08:04:22.297Z,10.98
2023-07-19T08:06:50.312Z,10.05
2023-07-19T08:09:20.266Z,7.45
2023-07-19T08:11:49.977Z,9.95
2023-07-19T08:14:18.003Z,9.57
2023-07-19T08:16:46.005Z,7.63
2023-07-19T08:19:14.543Z,10.68
2023-07-19T08:21:44.247Z,8.18
2023-07-19T08:24:12.625Z,7.32
2023-07-19T08:26:41.117Z,8.07
2023-07-19T08:29:09.166Z,10.23
2023-07-19T08:31:37.562Z,9.63
2023-07-19T08:34:05.600Z,11.88
2023-07-19T08:36:33.628Z,10.18
2023-07-19T08:39:03.261Z,7.07
2023-07-19T08:41:34.003Z,10.90
2023-07-19T08:44:02.351Z,11.80
2023-07-19T08:46:30.387Z,8.57
2023-07-19T08:48:59.044Z,8.90
2023-07-19T08:51:27.828Z,8.90
2023-07-19T08:53:56.102Z,7.65
2023-07-19T08:56:25.774Z,8.40
2023-07-19T08:58:53.831Z,7.07
2023-07-19T09:01:22.519Z,6.82
2023-07-19T09:03:50.807Z,10.90
2023-07-19T09:06:25.406Z,15.63
2023-07-19T09:08:54.155Z,10.40
2023-07-19T09:11:23.274Z,11.23
2023-07-19T09:13:55.660Z,8.25
2023-07-19T09:16:29.030Z,8.43
2023-07-19T09:18:59.615Z,9.75
2023-07-19T09:21:35.221Z,7.72
2023-07-19T09:24:06.050Z,7.45
2023-07-19T09:26:49.470Z,11.70
2023-07-19T09:29:19.273Z,15.98
2023-07-19T09:31:57.478Z,10.30
2023-07-19T09:34:28.953Z,14.02
2023-07-19T09:36:57.418Z,14.68
2023-07-19T09:39:25.436Z,12.25
2023-07-19T09:41:54.130Z,11.48
2023-07-19T09:44:23.894Z,8.75
2023-07-19T09:46:52.225Z,12.30
2023-07-19T09:49:20.229Z,9.43
2023-07-19T09:51:49.909Z,9.10
2023-07-19T09:54:18.645Z,11.60
2023-07-19T09:56:46.776Z,11.57
2023-07-19T09:59:16.687Z,9.85
2023-07-19T10:01:46.362Z,13.98
2023-07-19T10:04:25.745Z,8.07
2023-07-19T10:07:05.005Z,11.40
2023-07-19T10:09:43.146Z,9.63
2023-07-19T10:12:25.654Z,10.60
2023-07-19T10:14:55.296Z,13.15
2023-07-19T10:17:25.810Z,10.73
2023-07-19T10:19:59.666Z,9.93
2023-07-19T10:22:54.032Z,10.02
2023-07-19T10:25:28.621Z,10.73
2023-07-19T10:28:05.434Z,8.02
2023-07-19T10:30:53.458Z,9.80
2023-07-19T10:33:24.265Z,12.50
2023-07-19T10:35:53.459Z,12.73
2023-07-19T10:38:24.037Z,10.45
2023-07-19T10:40:57.392Z,12.27
2023-07-19T10:43:44.956Z,13.43
2023-07-19T10:46:14.676Z,11.10
2023-07-19T10:48:44.414Z,11.80
2023-07-19T10:51:12.580Z,10.98
2023-07-19T10:53:46.124Z,12.98
2023-07-19T10:56:15.376Z,12.43
2023-07-19T10:58:43.999Z,15.70
2023-07-19T11:01:13.493Z,10.30
2023-07-19T11:03:44.090Z,7.32
2023-07-19T11:06:13.711Z,13.60
2023-07-19T11:08:42.181Z,11.02
2023-07-19T11:11:13.967Z,8.75
2023-07-19T11:13:42.076Z,9.90
2023-07-19T11:16:10.140Z,11.90
2023-07-19T11:18:39.619Z,10.38
2023-07-19T11:21:08.726Z,11.90
2023-07-19T11:23:42.595Z,13.77
2023-07-19T11:26:13.131Z,12.15
2023-07-19T11:28:45.545Z,11.57
2023-07-19T11:31:29.087Z,16.50
2023-07-19T11:34:02.682Z,10.57
2023-07-19T11:36:31.185Z,13.63
2023-07-19T11:39:00.577Z,18.00
2023-07-19T11:41:32.037Z,11.70
2023-07-19T11:44:00.110Z,9.52
2023-07-19T11:46:28.136Z,11.23
2023-07-19T11:48:56.143Z,9.05
2023-07-19T11:51:24.604Z,13.02
2023-07-19T11:53:52.787Z,11.57
2023-07-19T11:56:22.118Z,10.75
2023-07-19T11:58:50.461Z,9.90
2023-07-19T12:01:20.344Z,9.43
2023-07-19T12:03:48.679Z,13.52
2023-07-19T12:06:16.815Z,13.85
2023-07-19T12:08:45.407Z,8.05
2023-07-19T12:11:14.081Z,11.73
2023-07-19T12:13:43.376Z,19.13
2023-07-19T12:16:11.401Z,10.40
2023-07-19T12:18:40.197Z,10.48
2023-07-19T12:21:08.267Z,11.63
2023-07-19T12:23:40.634Z,11.95
2023-07-19T12:26:10.316Z,12.95
2023-07-19T12:28:38.661Z,10.85
2023-07-19T12:31:09.293Z,11.95
2023-07-19T12:33:37.323Z,10.93
2023-07-19T12:36:05.932Z,11.02
2023-07-19T12:38:35.084Z,12.73
2023-07-19T12:41:03.153Z,16.08
2023-07-19T12:43:31.109Z,8.52
2023-07-19T12:45:59.433Z,15.20
2023-07-19T12:48:28.727Z,10.15
2023-07-19T12:50:56.909Z,9.32
2023-07-19T12:53:25.502Z,13.52
2023-07-19T12:55:54.970Z,12.13
2023-07-19T12:58:24.202Z,9.85
2023-07-19T13:00:52.436Z,13.60
2023-07-19T13:03:21.700Z,15.30
2023-07-19T13:05:51.338Z,11.68
2023-07-19T13:08:19.436Z,11.13
2023-07-19T13:10:47.428Z,14.07
2023-07-19T13:13:16.951Z,12.43
2023-07-19T13:15:45.085Z,13.93
2023-07-19T13:18:13.047Z,11.90
2023-07-19T13:20:41.080Z,11.88
2023-07-19T13:23:11.933Z,12.75
2023-07-19T13:25:40.407Z,9.18
2023-07-19T13:28:08.793Z,12.77
2023-07-19T13:30:38.859Z,10.85
2023-07-19T13:33:07.111Z,11.98
2023-07-19T13:38:07.397Z,13.27
2023-07-19T13:40:36.984Z,14.60
2023-07-19T13:43:05.004Z,10.35
2023-07-19T13:45:35.181Z,11.95
2023-07-19T13:48:03.340Z,10.43
2023-07-19T13:50:31.319Z,10.05
2023-07-19T13:53:01.284Z,8.80
2023-07-19T13:55:29.348Z,11.48
2023-07-19T13:57:58.735Z,11.50
2023-07-19T14:00:26.764Z,9.60
2023-07-19T14:02:55.053Z,19.38
2023-07-19T14:05:23.994Z,8.90
2023-07-19T14:07:54.726Z,9.32
2023-07-19T14:10:22.861Z,7.78
2023-07-19T14:12:59.419Z,8.27
2023-07-19T14:15:29.653Z,13.55
2023-07-19T14:17:57.615Z,8.32
2023-07-19T14:20:26.932Z,13.15
2023-07-19T14:22:55.353Z,11.90
2023-07-19T14:25:23.570Z,11.20
2023-07-19T14:27:51.567Z,8.35
2023-07-19T14:30:20.268Z,8.52
2023-07-19T14:32:49.639Z,10.55
2023-07-19T14:35:17.678Z,6.93
2023-07-19T14:37:45.825Z,8.52
2023-07-19T14:40:15.424Z,7.10
2023-07-19T14:42:44.703Z,9.48
2023-07-19T14:45:12.681Z,6.68
2023-07-19T14:47:40.660Z,6.28
2023-07-19T14:50:11.182Z,7.68
2023-07-19T14:52:42.685Z,6.97
2023-07-19T14:55:11.197Z,9.35
2023-07-19T14:57:39.165Z,5.78
2023-07-19T15:00:13.309Z,6.28
2023-07-19T15:02:42.466Z,7.93
2023-07-19T15:05:12.464Z,5.57
2023-07-19T15:07:44.666Z,4.88
2023-07-19T15:10:13.227Z,8.27
2023-07-19T15:12:43.952Z,5.13
2023-07-19T15:15:13.155Z,5.80
2023-07-19T15:17:42.493Z,8.13
2023-07-19T15:20:12.980Z,9.95
2023-07-19T15:22:42.147Z,12.35
2023-07-19T15:25:10.727Z,6.82
2023-07-19T15:27:38.869Z,6.20
2023-07-19T15:30:08.491Z,5.80
2023-07-19T15:32:36.585Z,3.80
2023-07-19T15:35:04.910Z,6.55
2023-07-19T15:37:34.231Z,6.68
2023-07-19T15:40:02.276Z,5.40
2023-07-19T15:42:30.504Z,3.63
2023-07-19T15:44:58.502Z,7.13
2023-07-19T15:47:26.931Z,5.03
2023-07-19T15:49:54.912Z,2.97
2023-07-19T15:52:22.884Z,10.10
2023-07-19T15:54:52.347Z,3.58
2023-07-19T15:57:20.373Z,5.47
2023-07-19T15:59:48.335Z,4.70
2023-07-19T16:02:17.995Z,7.32
2023-07-19T16:04:46.046Z,8.35
2023-07-19T16:07:14.675Z,3.83
2023-07-19T16:09:42.770Z,3.58
2023-07-19T16:12:12.547Z,3.75
2023-07-19T16:14:40.507Z,3.90
2023-07-19T16:17:08.428Z,7.72
2023-07-19T16:19:36.356Z,4.28
2023-07-19T16:22:04.317Z,4.20
2023-07-19T16:24:32.378Z,2.83
2023-07-19T16:27:00.376Z,5.53
2023-07-19T16:29:29.752Z,3.38
2023-07-19T16:31:57.793Z,5.82
2023-07-19T16:34:25.743Z,4.60
2023-07-19T16:36:53.713Z,4.07
2023-07-19T16:39:21.854Z,4.05
2023-07-19T16:41:49.918Z,4.05
2023-07-19T16:44:18.268Z,3.38
2023-07-19T16:46:47.616Z,3.10
2023-07-19T16:49:15.689Z,3.17
2023-07-19T16:51:43.675Z,2.63
2023-07-19T16:54:11.615Z,7.45
2023-07-19T16:56:39.558Z,4.53
2023-07-19T16:59:07.487Z,1.92
2023-07-19T17:01:35.606Z,3.60
2023-07-19T17:04:05.493Z,2.88
2023-07-19T17:06:33.449Z,2.03
2023-07-19T17:09:01.433Z,4.55
2023-07-19T17:11:29.450Z,2.58
2023-07-19T17:13:57.410Z,4.18
2023-07-19T17:16:25.434Z,2.65
2023-07-19T17:19:05.819Z,3.88
2023-07-19T17:21:45.574Z,3.80
2023-07-19T17:24:13.972Z,2.75
2023-07-19T17:26:42.013Z,3.83
2023-07-19T17:29:10.000Z,4.32
2023-07-19T17:31:38.132Z,2.20
2023-07-19T17:34:06.179Z,4.00
2023-07-19T17:36:34.204Z,4.18
2023-07-19T17:39:03.562Z,4.93
2023-07-19T17:41:31.750Z,2.60
2023-07-19T17:44:00.478Z,3.78
2023-07-19T17:46:28.521Z,3.65
2023-07-19T17:48:56.442Z,3.10
2023-07-19T17:51:24.584Z,2.38
2023-07-19T17:53:52.706Z,3.80
2023-07-19T17:56:22.068Z,2.63
2023-07-19T17:58:51.291Z,3.20
2023-07-19T18:01:21.227Z,3.13
2023-07-19T18:03:50.625Z,4.38
2023-07-19T18:06:19.176Z,2.00
2023-07-19T18:08:47.252Z,3.30
2023-07-19T18:11:15.398Z,4.80
2023-07-19T18:13:44.776Z,2.85
2023-07-19T18:16:12.768Z,2.80
2023-07-19T18:18:40.725Z,3.53
2023-07-19T18:21:08.714Z,4.00
2023-07-19T18:23:38.380Z,4.95
2023-07-19T18:26:07.970Z,2.03
2023-07-19T18:28:37.416Z,4.05
2023-07-19T18:31:06.862Z,2.60
2023-07-19T18:33:34.961Z,5.80
2023-07-19T18:36:02.969Z,3.72
2023-07-19T18:38:30.964Z,6.95
2023-07-19T18:40:59.316Z,3.63
2023-07-19T18:43:27.667Z,1.70
2023-07-19T18:45:55.704Z,2.88
2023-07-19T18:48:25.276Z,2.63
2023-07-19T18:50:53.280Z,7.47
2023-07-19T18:53:23.122Z,2.78
2023-07-19T18:55:51.328Z,2.78
2023-07-19T18:58:19.825Z,3.28
2023-07-19T19:00:49.262Z,3.55
2023-07-19T19:03:17.537Z,4.45
2023-07-19T19:05:47.714Z,4.15
2023-07-19T19:08:17.355Z,2.53
2023-07-19T19:10:45.402Z,6.25
2023-07-19T19:13:13.638Z,4.85
2023-07-19T19:15:41.641Z,7.30
2023-07-19T19:18:09.851Z,9.35
2023-07-19T19:20:37.913Z,3.08
2023-07-19T19:23:08.064Z,4.65
2023-07-19T19:25:36.311Z,8.63
2023-07-19T19:28:04.598Z,2.40
2023-07-19T19:30:32.690Z,3.38
2023-07-19T19:33:00.802Z,2.40
2023-07-19T19:35:29.344Z,5.13
2023-07-19T19:37:57.323Z,4.80
2023-07-19T19:40:27.409Z,6.90
2023-07-19T19:42:55.407Z,5.70
2023-07-19T19:45:23.386Z,2.88
2023-07-19T19:47:51.384Z,6.05
2023-07-19T19:50:19.354Z,2.95
2023-07-19T19:52:59.085Z,6.55
2023-07-19T19:58:03.897Z,3.90
2023-07-19T20:00:31.852Z,2.53
2023-07-19T20:08:01.710Z,4.05
2023-07-19T20:10:29.891Z,3.83
2023-07-19T20:12:59.665Z,4.00
2023-07-19T20:15:27.833Z,4.60
2023-07-19T20:18:19.423Z,8.77
2023-07-19T20:20:43.830Z,5.85
2023-07-19T20:23:13.370Z,5.10
2023-07-19T20:25:47.865Z,4.35
2023-07-19T20:28:30.830Z,4.53
2023-07-19T20:31:05.852Z,3.58
2023-07-19T20:33:34.955Z,5.13
2023-07-19T20:36:05.865Z,9.13
2023-07-19T20:43:37.482Z,4.57
2023-07-19T20:46:07.609Z,4.75
2023-07-19T20:48:38.349Z,11.23
2023-07-19T20:51:10.903Z,3.15
2023-07-19T20:53:39.346Z,6.10
2023-07-19T20:56:07.930Z,5.22
2023-07-19T20:58:37.395Z,3.45
2023-07-19T21:01:05.811Z,5.95
2023-07-19T21:03:34.338Z,6.40
2023-07-19T21:06:03.441Z,4.75
2023-07-19T21:08:31.479Z,7.60
2023-07-19T21:10:59.474Z,5.00
2023-07-19T21:13:27.704Z,5.85
2023-07-19T21:15:57.124Z,8.07
2023-07-19T21:18:25.131Z,5.63
2023-07-19T21:20:53.082Z,6.00
2023-07-19T21:23:21.118Z,7.43
2023-07-19T21:25:49.470Z,6.25
2023-07-19T21:28:17.662Z,4.55
2023-07-19T21:30:45.677Z,6.85
2023-07-19T21:33:15.434Z,4.50
2023-07-19T21:35:43.448Z,5.47
2023-07-19T21:38:11.485Z,4.18
2023-07-19T21:40:39.614Z,6.10
2023-07-19T21:43:08.237Z,7.93
2023-07-19T21:45:36.772Z,5.80
2023-07-19T21:48:06.000Z,5.75
2023-07-19T21:50:35.523Z,5.68
2023-07-19T21:53:03.631Z,6.25
2023-07-19T21:55:31.801Z,4.93
2023-07-19T21:58:00.160Z,5.60
2023-07-19T22:00:41.596Z,5.55
2023-07-19T22:03:12.022Z,3.47
2023-07-19T22:05:42.055Z,6.93
2023-07-19T22:08:10.172Z,7.32
2023-07-19T22:10:38.490Z,6.03
2023-07-19T22:13:08.363Z,4.78
2023-07-19T22:15:36.874Z,7.15
2023-07-19T22:18:18.544Z,4.82
2023-07-19T22:20:50.111Z,5.65
2023-07-19T22:23:19.245Z,5.60
2023-07-19T22:25:49.423Z,9.48
2023-07-19T22:28:30.216Z,4.28
2023-07-19T22:30:58.495Z,4.53
2023-07-19T22:33:26.490Z,6.45
2023-07-19T22:35:55.875Z,5.05
2023-07-19T22:38:23.989Z,3.67
2023-07-19T22:40:51.966Z,7.47
2023-07-19T22:43:19.902Z,4.22
2023-07-19T22:45:47.881Z,6.40
2023-07-19T22:48:15.889Z,4.75
2023-07-19T22:50:43.848Z,5.95
2023-07-19T22:53:14.097Z,5.57
2023-07-19T22:55:42.109Z,3.90
2023-07-19T22:58:10.226Z,7.82
2023-07-19T23:00:38.215Z,5.90
2023-07-19T23:03:06.340Z,5.38
2023-07-19T23:05:37.330Z,4.80
2023-07-19T23:08:05.848Z,8.23
2023-07-19T23:10:35.329Z,4.88
2023-07-19T23:13:03.299Z,6.25
2023-07-19T23:15:31.351Z,5.78
2023-07-19T23:18:00.151Z,5.63
2023-07-19T23:20:28.225Z,6.13
2023-07-19T23:22:57.176Z,4.40
2023-07-19T23:25:25.285Z,4.45
2023-07-19T23:27:55.189Z,4.28
2023-07-19T23:30:23.381Z,7.60
2023-07-19T23:32:52.014Z,4.55
2023-07-19T23:35:20.254Z,6.57
2023-07-19T23:37:48.212Z,4.32
2023-07-19T23:40:16.327Z,3.78
2023-07-19T23:42:44.420Z,3.38
2023-07-19T23:45:13.784Z,4.15
2023-07-19T23:47:41.915Z,4.65
2023-07-19T23:50:10.418Z,4.43
2023-07-19T23:52:38.422Z,6.00
2023-07-19T23:55:07.649Z,6.30
2023-07-19T23:57:35.709Z,7.53
